Time;durP1;ratioP1;P1;durP2;ratioP2;P2;SDS_P1;SDS_P2;PMS_P1;PMS_P2;Temp;Humidity;BMP_temperature;BMP_pressure;BME280_temperature;BME280_humidity;BME280_pressure;Samples;Min_cycle;Max_cycle;Signal;HPM_P1;HPM_P2
2023/10/17 00:02:10;;;;;;;5.28;4.72;;;;;;;7.94;47.97;95343.59;5038478;28;20206;-73
2023/10/17 00:04:41;;;;;;;5.38;4.68;;;;;;;7.93;48.34;95344.72;5038431;28;20187;-73
2023/10/17 00:07:08;;;;;;;5.95;4.63;;;;;;;7.79;48.21;95336.69;5038326;28;20269;-73
2023/10/17 00:09:37;;;;;;;5.43;4.90;;;;;;;7.79;48.66;95335.88;5036726;28;20218;-73
2023/10/17 00:12:14;;;;;;;5.55;4.93;;;;;;;7.78;48.75;95335.09;5036834;28;20641;-73
2023/10/17 00:14:57;;;;;;;5.35;4.85;;;;;;;7.70;48.83;95334.00;5037244;28;20190;-73
2023/10/17 00:17:24;;;;;;;6.97;5.25;;;;;;;7.68;48.86;95336.25;5038137;28;20186;-73
2023/10/17 00:19:54;;;;;;;6.90;5.40;;;;;;;7.74;48.89;95325.09;5037872;28;20193;-74
2023/10/17 00:22:23;;;;;;;6.35;5.28;;;;;;;7.76;49.22;95331.84;5037524;28;20229;-73
2023/10/17 00:24:55;;;;;;;6.00;4.88;;;;;;;7.69;49.81;95326.88;5038048;28;20198;-73
2023/10/17 00:27:22;;;;;;;6.65;5.32;;;;;;;7.70;49.81;95338.69;5036813;28;20202;-73
2023/10/17 00:29:51;;;;;;;5.65;4.68;;;;;;;7.76;49.97;95329.09;5037391;28;20271;-73
2023/10/17 00:32:20;;;;;;;7.68;4.45;;;;;;;7.69;49.65;95329.59;5037868;28;20195;-72
2023/10/17 00:34:47;;;;;;;5.22;4.72;;;;;;;7.66;49.97;95327.53;5035900;28;20194;-72
2023/10/17 00:37:15;;;;;;;5.50;5.00;;;;;;;7.65;49.84;95320.41;5037517;28;20187;-72
2023/10/17 00:39:42;;;;;;;6.00;4.88;;;;;;;7.64;50.00;95304.28;5037530;28;20202;-72
2023/10/17 00:44:58;;;;;;;5.32;4.82;;;;;;;7.50;50.38;95309.19;5037718;28;20265;-72
2023/10/17 00:47:26;;;;;;;7.68;5.15;;;;;;;7.41;50.83;95310.00;5037081;28;20618;-71
2023/10/17 00:49:52;;;;;;;5.03;4.50;;;;;;;7.44;51.02;95305.78;5037587;28;20208;-72
2023/10/17 00:52:26;;;;;;;6.00;5.40;;;;;;;7.47;51.05;95308.69;5039773;28;20198;-72
2023/10/17 00:54:54;;;;;;;6.43;4.97;;;;;;;7.41;51.20;95310.00;5057105;28;20217;-72
2023/10/17 00:57:26;;;;;;;6.43;4.78;;;;;;;7.43;50.87;95306.94;5056804;28;20665;-72
2023/10/17 00:59:57;;;;;;;5.55;5.10;;;;;;;7.42;50.78;95311.63;5056882;28;20291;-72
2023/10/17 01:02:29;;;;;;;5.57;4.97;;;;;;;7.30;50.97;95305.19;5040434;28;20215;-72
2023/10/17 01:04:59;;;;;;;6.30;5.50;;;;;;;7.37;50.83;95310.97;5056884;28;20182;-72
2023/10/17 01:07:27;;;;;;;6.18;4.97;;;;;;;7.37;50.68;95306.31;5056860;28;20186;-71
2023/10/17 01:10:00;;;;;;;5.45;4.88;;;;;;;7.44;50.17;95308.53;5039352;28;20272;-71
2023/10/17 01:12:28;;;;;;;7.20;4.90;;;;;;;7.44;49.78;95305.78;5040139;28;20288;-71
2023/10/17 01:14:56;;;;;;;6.30;5.20;;;;;;;7.43;49.25;95302.25;5040123;28;20206;-71
2023/10/17 01:17:26;;;;;;;4.72;4.32;;;;;;;7.40;49.65;95313.06;5056603;28;20495;-71
2023/10/17 01:19:57;;;;;;;6.82;4.63;;;;;;;7.33;49.42;95308.06;5056890;28;20512;-72
2023/10/17 01:22:24;;;;;;;5.03;4.50;;;;;;;7.18;49.74;95314.06;5039401;28;20228;-72
2023/10/17 01:25:07;;;;;;;6.43;4.60;;;;;;;7.20;49.38;95315.38;5056865;28;20177;-72
2023/10/17 01:27:34;;;;;;;5.45;4.80;;;;;;;7.33;49.32;95310.00;5056794;28;20190;-73
2023/10/17 01:30:01;;;;;;;5.07;4.57;;;;;;;7.37;49.45;95309.06;5038950;28;20201;-73
2023/10/17 01:32:28;;;;;;;5.20;4.60;;;;;;;7.27;49.44;95303.91;5039364;28;20267;-72
2023/10/17 01:34:57;;;;;;;5.28;4.78;;;;;;;7.23;49.38;95302.97;5039173;28;20236;-73
2023/10/17 01:37:24;;;;;;;5.82;4.30;;;;;;;7.31;49.73;95304.88;5038777;28;20202;-71
2023/10/17 01:39:52;;;;;;;5.05;4.55;;;;;;;7.28;49.59;95300.03;5039546;28;20211;-72
2023/10/17 01:42:20;;;;;;;4.63;4.00;;;;;;;7.25;49.58;95297.94;5038705;28;20218;-73
2023/10/17 01:44:50;;;;;;;5.70;4.63;;;;;;;7.14;49.85;95304.91;5055801;28;20605;-72
2023/10/17 01:47:18;;;;;;;6.47;4.30;;;;;;;7.20;50.30;95306.34;5038650;28;20206;-72
2023/10/17 01:49:45;;;;;;;5.18;4.45;;;;;;;7.24;50.02;95313.59;5039460;28;20204;-72
2023/10/17 01:52:12;;;;;;;6.38;3.95;;;;;;;7.23;49.07;95309.25;5038134;28;20208;-72
2023/10/17 01:54:39;;;;;;;4.63;3.97;;;;;;;7.26;49.82;95313.25;5055887;28;20186;-71
2023/10/17 01:57:08;;;;;;;4.45;4.05;;;;;;;7.27;49.76;95314.88;5038423;28;20202;-70
2023/10/17 01:59:36;;;;;;;5.38;4.15;;;;;;;7.28;49.53;95315.69;5055857;28;20186;-70
2023/10/17 02:02:03;;;;;;;4.90;4.28;;;;;;;7.24;49.94;95310.84;5039109;28;20236;-70
2023/10/17 02:04:30;;;;;;;9.20;3.85;;;;;;;7.20;49.44;95301.66;5038328;28;20541;-70
2023/10/17 02:06:59;;;;;;;5.28;4.10;;;;;;;7.19;49.75;95305.53;5038555;28;20214;-71
2023/10/17 02:09:44;;;;;;;7.85;3.72;;;;;;;7.17;50.08;95307.00;5055663;28;20178;-71
2023/10/17 02:12:13;;;;;;;4.78;4.13;;;;;;;7.15;50.62;95304.59;5038246;28;20257;-71
2023/10/17 02:14:41;;;;;;;4.68;4.05;;;;;;;7.23;50.62;95294.72;5056110;28;20256;-71
2023/10/17 02:17:11;;;;;;;4.78;4.20;;;;;;;7.31;50.27;95293.09;5055559;28;20200;-71
2023/10/17 02:19:38;;;;;;;4.90;3.90;;;;;;;7.33;50.31;95293.56;5055574;28;20193;-71
2023/10/17 02:22:09;;;;;;;4.90;4.05;;;;;;;7.29;50.42;95300.81;5055432;28;20205;-71
2023/10/17 02:24:38;;;;;;;4.43;3.92;;;;;;;7.34;50.08;95297.94;5055432;28;20208;-71
2023/10/17 02:27:13;;;;;;;4.43;3.88;;;;;;;7.38;50.14;95290.66;5038262;28;20205;-72
2023/10/17 02:29:46;;;;;;;4.40;4.00;;;;;;;7.33;49.97;95279.84;5055101;28;20203;-72
2023/10/17 02:32:13;;;;;;;5.85;4.45;;;;;;;7.28;50.43;95286.31;5038393;28;20197;-72
2023/10/17 02:34:40;;;;;;;6.15;4.13;;;;;;;7.26;50.90;95288.56;5037861;28;20616;-72
2023/10/17 02:37:10;;;;;;;5.88;4.47;;;;;;;7.25;50.60;95289.69;5038094;28;20252;-72
2023/10/17 02:39:38;;;;;;;4.30;3.80;;;;;;;7.26;50.59;95293.25;5037911;28;20208;-72
2023/10/17 02:42:08;;;;;;;5.47;3.85;;;;;;;7.12;51.28;95296.19;5055323;28;20218;-72
2023/10/17 02:44:39;;;;;;;5.70;4.57;;;;;;;7.02;51.03;95291.03;5055172;28;20276;-72
2023/10/17 02:47:11;;;;;;;8.73;4.68;;;;;;;6.98;51.60;95293.63;5055199;28;20189;-72
2023/10/17 02:49:38;;;;;;;4.88;4.40;;;;;;;7.08;51.04;95286.97;5038288;28;20221;-72
2023/10/17 02:52:06;;;;;;;5.13;4.50;;;;;;;7.08;51.54;95287.81;5037894;28;20280;-72
2023/10/17 02:54:52;;;;;;;7.10;4.40;;;;;;;7.07;51.41;95291.66;5055194;28;20186;-71
2023/10/17 02:57:20;;;;;;;5.63;4.18;;;;;;;7.11;51.52;95287.13;5038826;28;20288;-72
2023/10/17 02:59:51;;;;;;;5.75;4.07;;;;;;;7.07;51.37;95299.09;5042289;28;20208;-72
2023/10/17 03:02:24;;;;;;;4.85;4.35;;;;;;;7.06;51.84;95295.56;5041979;28;20233;-73
2023/10/17 03:05:02;;;;;;;5.90;4.38;;;;;;;6.97;51.76;95295.56;5059178;28;20197;-73
2023/10/17 03:07:30;;;;;;;4.63;4.22;;;;;;;7.05;51.59;95301.38;5042079;28;20288;-73
2023/10/17 03:09:59;;;;;;;5.88;4.40;;;;;;;7.08;51.25;95307.00;5059020;28;20216;-73
2023/10/17 03:12:29;;;;;;;9.43;4.43;;;;;;;7.11;50.94;95303.59;5058975;28;20205;-73
2023/10/17 03:17:42;;;;;;;4.35;3.95;;;;;;;7.18;51.32;95298.41;5058642;28;20189;-72
2023/10/17 03:20:11;;;;;;;4.53;3.60;;;;;;;7.23;51.02;95290.03;5059146;28;20190;-72
2023/10/17 03:22:39;;;;;;;4.15;3.75;;;;;;;7.29;50.69;95290.66;5058772;28;20300;-73
2023/10/17 03:25:18;;;;;;;4.22;3.80;;;;;;;7.27;50.69;95292.13;5058506;28;20229;-73
2023/10/17 03:27:49;;;;;;;4.15;3.75;;;;;;;7.23;50.32;95290.03;5041548;28;20205;-68
2023/10/17 03:30:19;;;;;;;4.32;3.65;;;;;;;7.26;49.97;95290.50;5058678;28;20173;-73
2023/10/17 03:33:08;;;;;;;5.88;3.90;;;;;;;7.25;50.55;95295.19;5041435;28;20233;-71
2023/10/17 03:35:49;;;;;;;5.00;3.78;;;;;;;7.28;50.66;95293.75;5040993;28;20256;-74
2023/10/17 03:38:23;;;;;;;4.13;3.72;;;;;;;7.25;50.57;95295.19;5041039;28;20251;-74
2023/10/17 03:40:53;;;;;;;5.13;3.83;;;;;;;7.24;50.48;95290.84;5058122;28;20274;-72
2023/10/17 03:43:22;;;;;;;4.13;3.72;;;;;;;7.22;50.77;95293.09;5041010;28;20200;-73
2023/10/17 03:46:03;;;;;;;5.35;4.68;;;;;;;7.23;50.75;95290.03;5041077;28;20190;-72
2023/10/17 03:48:36;;;;;;;4.75;4.25;;;;;;;7.22;50.97;95291.16;5041094;28;20210;-71
2023/10/17 03:51:11;;;;;;;6.30;4.85;;;;;;;7.24;51.27;95290.84;5040884;28;20262;-73
2023/10/17 03:53:47;;;;;;;5.70;4.80;;;;;;;7.27;51.54;95289.41;5058487;28;20248;-73
2023/10/17 03:56:23;;;;;;;7.22;4.65;;;;;;;7.32;51.27;95286.47;5057054;28;20437;-67
2023/10/17 03:58:56;;;;;;;4.78;4.00;;;;;;;7.36;51.38;95288.22;5058215;28;20205;-66
2023/10/17 04:01:26;;;;;;;6.45;4.45;;;;;;;7.37;51.54;95287.09;5058582;28;20206;-66
2023/10/17 04:03:55;;;;;;;7.28;4.43;;;;;;;7.41;51.65;95288.06;5040564;28;20190;-66
2023/10/17 04:06:34;;;;;;;6.75;4.70;;;;;;;7.41;51.46;95285.31;5040721;28;20620;-67
2023/10/17 04:09:17;;;;;;;5.93;4.20;;;;;;;7.43;51.41;95288.53;5040961;28;20197;-66
2023/10/17 04:11:49;;;;;;;4.82;4.07;;;;;;;7.38;52.31;95293.41;5040411;28;20247;-66
2023/10/17 04:14:17;;;;;;;5.32;4.38;;;;;;;7.39;52.61;95295.81;5040717;28;20216;-66
2023/10/17 04:16:46;;;;;;;5.95;4.43;;;;;;;7.39;52.33;95293.06;5058078;28;20285;-67
2023/10/17 04:19:18;;;;;;;7.32;4.00;;;;;;;7.38;52.54;95277.72;5041357;28;20194;-67
2023/10/17 04:21:51;;;;;;;5.75;4.20;;;;;;;7.34;52.67;95281.47;5040952;28;20221;-67
2023/10/17 04:24:26;;;;;;;5.63;3.92;;;;;;;7.36;52.39;95284.66;5040271;28;20572;-67
2023/10/17 04:27:05;;;;;;;5.25;4.05;;;;;;;7.41;52.66;95290.81;5058063;28;20221;-67
2023/10/17 04:29:33;;;;;;;4.93;3.92;;;;;;;7.42;52.26;95292.41;5040433;28;20208;-67
2023/10/17 04:32:04;;;;;;;6.75;4.53;;;;;;;7.38;52.14;95290.66;5040070;28;20520;-66
2023/10/17 04:34:33;;;;;;;5.38;4.32;;;;;;;7.37;52.25;95286.28;5057481;28;20200;-66
2023/10/17 04:37:05;;;;;;;4.70;4.28;;;;;;;7.39;52.00;95287.56;5039622;28;20659;-66
2023/10/17 04:39:36;;;;;;;7.00;4.13;;;;;;;7.40;52.57;95277.41;5057121;28;20593;-66
2023/10/17 04:42:06;;;;;;;6.07;4.20;;;;;;;7.45;52.54;95269.81;5057460;28;20205;-66
2023/10/17 04:44:36;;;;;;;7.38;4.70;;;;;;;7.41;52.29;95279.03;5057362;28;20190;-66
2023/10/17 04:49:53;;;;;;;8.70;5.00;;;;;;;7.42;52.67;95280.63;5056942;28;20211;-66
2023/10/17 04:52:21;;;;;;;5.63;4.65;;;;;;;7.46;52.56;95285.13;5039211;28;20664;-66
2023/10/17 04:54:52;;;;;;;8.15;5.10;;;;;;;7.49;52.48;95278.19;5056884;28;20488;-66
2023/10/17 04:57:19;;;;;;;11.02;6.75;;;;;;;7.51;52.41;95280.59;5056758;28;20186;-66
2023/10/17 04:59:55;;;;;;;15.88;7.50;;;;;;;7.52;52.88;95283.03;5056911;28;20208;-65
2023/10/17 05:02:49;;;;;;;10.95;7.03;;;;;;;7.52;52.95;95288.50;5057164;28;20219;-65
2023/10/17 06:16:58;;;;;;;9.10;5.35;;;;;;;8.17;55.91;95319.41;5055584;28;20247;-66
2023/10/17 06:19:27;;;;;;;11.13;5.53;;;;;;;8.25;56.40;95326.81;5038652;28;20189;-65
2023/10/17 06:26:02;;;;;;;5.00;3.85;;;;;;;8.50;57.14;95322.31;5037727;28;20665;-65
2023/10/17 06:30:28;;;;;;;5.20;3.28;;;;;;;8.83;58.51;95327.09;5055557;28;20179;-66
2023/10/17 06:33:19;;;;;;;5.25;3.33;;;;;;;8.95;58.17;95329.09;5037536;28;20204;-66
2023/10/17 06:35:46;;;;;;;5.57;3.67;;;;;;;9.09;58.42;95329.63;5055508;28;20247;-66
2023/10/17 06:38:19;;;;;;;4.00;3.53;;;;;;;9.16;58.47;95324.41;5038687;28;20562;-65
2023/10/17 06:40:53;;;;;;;3.53;3.08;;;;;;;9.22;58.51;95319.47;5055362;28;20214;-65
2023/10/17 06:43:27;;;;;;;3.50;3.10;;;;;;;9.27;58.00;95325.59;5038000;28;20218;-66
2023/10/17 06:46:05;;;;;;;5.85;3.42;;;;;;;9.30;57.80;95326.88;5038131;28;20260;-65
2023/10/17 06:48:36;;;;;;;5.05;3.28;;;;;;;9.33;57.92;95321.50;5037431;28;20207;-65
2023/10/17 06:53:55;;;;;;;5.68;2.90;;;;;;;9.32;57.96;95328.13;5034102;28;20241;-65
2023/10/17 06:56:25;;;;;;;3.40;3.10;;;;;;;9.38;57.86;95325.97;5035038;28;20252;-65
2023/10/17 06:59:03;;;;;;;5.82;3.50;;;;;;;9.46;57.69;95318.78;5035632;28;20265;-65
2023/10/17 07:01:35;;;;;;;6.90;3.28;;;;;;;9.53;57.50;95314.31;5036034;28;20562;-65
2023/10/17 07:04:03;;;;;;;4.13;2.80;;;;;;;9.60;57.42;95316.50;5034485;28;20205;-65
2023/10/17 07:06:34;;;;;;;5.03;3.10;;;;;;;9.65;57.05;95305.28;5035557;28;20228;-65
2023/10/17 07:09:05;;;;;;;3.25;2.95;;;;;;;9.69;57.20;95305.38;5034231;28;20656;-66
2023/10/17 07:11:35;;;;;;;4.10;2.83;;;;;;;9.72;56.67;95301.97;5035382;28;20201;-65
2023/10/17 07:16:57;;;;;;;3.25;2.70;;;;;;;9.72;56.59;95294.50;5017383;28;20210;-65
2023/10/17 07:22:14;;;;;;;4.90;2.90;;;;;;;9.75;56.77;95293.00;5033645;28;20225;-65
2023/10/17 07:24:48;;;;;;;3.53;3.00;;;;;;;9.75;56.71;95293.81;5034871;28;20206;-65
2023/10/17 07:30:13;;;;;;;3.13;2.83;;;;;;;9.81;56.65;95292.47;5031196;28;20653;-65
2023/10/17 07:32:46;;;;;;;4.38;3.30;;;;;;;9.80;56.62;95293.59;5034624;28;20182;-65
2023/10/17 07:35:16;;;;;;;4.03;3.20;;;;;;;9.81;56.39;95288.91;5034954;28;20187;-65
2023/10/17 07:37:53;;;;;;;4.50;2.80;;;;;;;9.86;56.29;95296.94;5034786;28;20195;-65
2023/10/17 07:40:31;;;;;;;4.30;2.67;;;;;;;9.92;56.41;95283.75;5034465;28;20379;-66
2023/10/17 07:43:00;;;;;;;3.83;2.95;;;;;;;9.97;56.46;95276.03;5034654;28;20664;-66
2023/10/17 07:45:38;;;;;;;3.38;3.08;;;;;;;9.99;56.17;95276.50;5038226;28;20606;-66
2023/10/17 07:48:19;;;;;;;6.63;3.30;;;;;;;10.03;55.94;95274.69;5038252;28;20626;-66
2023/10/17 07:50:50;;;;;;;3.72;3.10;;;;;;;10.06;55.76;95276.75;5038543;28;20261;-66
2023/10/17 07:53:19;;;;;;;4.55;2.88;;;;;;;10.12;55.72;95271.78;5048650;28;20229;-66
2023/10/17 07:55:52;;;;;;;3.97;2.60;;;;;;;10.19;55.38;95272.03;5058792;28;20196;-65
2023/10/17 07:58:35;;;;;;;3.90;2.47;;;;;;;10.23;55.26;95272.94;5058190;28;20190;-66
2023/10/17 08:01:07;;;;;;;3.80;2.75;;;;;;;10.26;55.05;95277.00;5058426;28;20243;-65
2023/10/17 08:03:40;;;;;;;3.67;2.70;;;;;;;10.31;54.82;95276.75;5040745;28;20221;-65
2023/10/17 08:06:08;;;;;;;5.35;2.65;;;;;;;10.35;55.05;95264.69;5058340;28;20186;-65
2023/10/17 08:08:42;;;;;;;4.03;2.63;;;;;;;10.36;54.64;95276.53;5058630;28;20205;-66
2023/10/17 08:11:26;;;;;;;4.18;3.20;;;;;;;10.40;54.68;95276.63;5058052;28;20207;-65
2023/10/17 08:13:53;;;;;;;5.40;3.83;;;;;;;10.42;54.23;95280.66;5040315;28;20194;-66
2023/10/17 08:16:29;;;;;;;3.75;2.88;;;;;;;10.47;54.24;95279.63;5058415;28;20268;-65
2023/10/17 08:19:12;;;;;;;3.67;2.30;;;;;;;10.49;54.08;95267.06;5057909;28;20198;-65
2023/10/17 08:21:48;;;;;;;3.72;3.05;;;;;;;10.55;53.88;95271.19;5057799;28;20226;-65
2023/10/17 08:24:26;;;;;;;4.80;2.47;;;;;;;10.58;52.67;95270.50;5057806;28;20209;-66
2023/10/17 08:27:13;;;;;;;3.35;2.25;;;;;;;10.56;52.43;95272.81;5040136;28;20198;-66
2023/10/17 08:29:42;;;;;;;4.68;2.58;;;;;;;10.57;52.40;95274.44;5057424;28;20178;-65
2023/10/17 08:32:38;;;;;;;3.17;2.25;;;;;;;10.57;52.05;95268.13;5057581;28;20204;-65
2023/10/17 08:35:09;;;;;;;4.03;2.50;;;;;;;10.59;51.71;95271.31;5057268;28;20182;-65
2023/10/17 08:37:43;;;;;;;3.70;2.33;;;;;;;10.61;52.19;95260.75;5057182;28;20594;-65
2023/10/17 08:42:56;;;;;;;4.40;2.60;;;;;;;10.70;52.20;95266.13;5039995;28;20238;-66
2023/10/17 08:45:26;;;;;;;3.75;3.00;;;;;;;10.72;51.92;95261.88;5040240;28;20209;-66
2023/10/17 08:47:59;;;;;;;4.13;2.45;;;;;;;10.73;52.05;95271.75;5057298;28;20186;-66
2023/10/17 08:50:27;;;;;;;4.13;2.83;;;;;;;10.75;52.31;95276.94;5039460;28;20201;-66
2023/10/17 08:52:54;;;;;;;2.97;2.15;;;;;;;10.75;51.99;95272.22;5039373;28;20229;-66
2023/10/17 08:55:24;;;;;;;4.45;3.13;;;;;;;10.75;51.47;95274.97;5038894;28;20288;-66
2023/10/17 08:57:52;;;;;;;9.00;4.53;;;;;;;10.76;51.54;95276.56;5057124;28;20204;-66
2023/10/17 09:00:48;;;;;;;10.10;5.25;;;;;;;10.80;51.97;95276.66;5040071;28;20189;-65
2023/10/17 09:03:23;;;;;;;4.30;3.20;;;;;;;10.82;51.61;95272.41;5039549;28;20221;-66
2023/10/17 09:05:58;;;;;;;6.45;2.97;;;;;;;10.85;51.59;95262.63;5039425;28;20197;-66
2023/10/17 09:08:43;;;;;;;5.25;3.10;;;;;;;10.87;51.16;95262.28;5056601;28;20194;-65
2023/10/17 09:11:14;;;;;;;3.67;3.10;;;;;;;10.89;51.43;95260.75;5056871;28;20209;-65
2023/10/17 09:14:11;;;;;;;4.07;3.00;;;;;;;10.93;51.40;95247.06;5039191;28;20213;-66
2023/10/17 09:16:43;;;;;;;5.03;3.00;;;;;;;10.90;51.65;95245.84;5056809;28;20232;-66
2023/10/17 09:19:14;;;;;;;3.92;2.60;;;;;;;10.92;51.54;95237.19;5056976;28;20209;-65
2023/10/17 09:21:49;;;;;;;4.40;2.70;;;;;;;10.95;51.49;95231.78;5056595;28;20194;-66
2023/10/17 09:24:32;;;;;;;2.85;2.58;;;;;;;10.98;51.49;95228.31;5056729;28;20310;-65
2023/10/17 09:26:59;;;;;;;5.55;2.90;;;;;;;11.02;51.46;95240.25;5040362;28;20251;-65
2023/10/17 09:29:29;;;;;;;3.22;2.50;;;;;;;11.03;51.05;95233.56;5040060;28;20204;-65
2023/10/17 09:31:56;;;;;;;2.88;2.40;;;;;;;11.07;50.73;95230.91;5039652;28;20296;-66
2023/10/17 09:34:28;;;;;;;3.05;2.20;;;;;;;11.07;50.64;95222.63;5057381;28;20188;-66
2023/10/17 09:37:04;;;;;;;3.50;2.40;;;;;;;11.11;50.96;95223.56;5056846;28;20684;-66
2023/10/17 09:39:39;;;;;;;2.55;2.35;;;;;;;11.13;50.70;95220.44;5056876;28;20615;-67
2023/10/17 09:42:06;;;;;;;3.80;2.42;;;;;;;11.15;50.82;95226.38;5056568;28;20578;-66
2023/10/17 09:44:35;;;;;;;2.72;2.30;;;;;;;11.16;50.97;95219.72;5039237;28;20217;-65
2023/10/17 09:47:06;;;;;;;3.53;2.58;;;;;;;11.18;50.61;95215.44;5040181;28;20201;-66
2023/10/17 09:49:37;;;;;;;3.35;2.22;;;;;;;11.21;50.98;95211.97;5039500;28;20205;-66
2023/10/17 09:52:09;;;;;;;4.82;3.08;;;;;;;11.23;50.92;95206.13;5056988;28;20182;-66
2023/10/17 09:54:40;;;;;;;3.10;2.78;;;;;;;11.25;51.04;95212.06;5016463;28;20203;-65
2023/10/17 09:57:12;;;;;;;5.32;2.72;;;;;;;11.30;50.49;95198.81;5016005;28;20217;-65
2023/10/17 09:59:44;;;;;;;4.50;2.70;;;;;;;11.32;50.31;95204.78;5032656;28;20237;-66
2023/10/17 10:02:13;;;;;;;7.20;2.70;;;;;;;11.36;50.50;95204.06;5016215;28;20246;-66
2023/10/17 10:04:41;;;;;;;3.63;2.15;;;;;;;11.37;50.43;95200.19;5017130;28;20215;-65
2023/10/17 10:07:22;;;;;;;3.15;2.60;;;;;;;11.38;50.33;95199.00;5016710;28;20187;-66
2023/10/17 10:09:49;;;;;;;4.95;2.60;;;;;;;11.39;50.23;95198.66;5016630;28;20233;-66
2023/10/17 10:12:17;;;;;;;4.68;2.60;;;;;;;11.42;50.08;95197.94;5015800;28;20191;-66
2023/10/17 10:14:44;;;;;;;3.53;2.50;;;;;;;11.44;50.24;95198.41;5016577;28;20199;-66
2023/10/17 10:17:13;;;;;;;3.30;2.30;;;;;;;11.48;50.27;95193.75;5017044;28;20245;-65
2023/10/17 10:20:02;;;;;;;4.25;2.65;;;;;;;11.52;49.76;95188.34;5016662;28;20191;-66
2023/10/17 10:22:59;;;;;;;2.40;2.20;;;;;;;11.54;49.82;95192.31;5032220;28;20254;-66
2023/10/17 10:25:26;;;;;;;4.20;2.70;;;;;;;11.55;49.71;95185.66;5016744;28;20213;-66
2023/10/17 10:28:27;;;;;;;3.55;2.47;;;;;;;11.59;49.49;95188.50;5016524;28;20206;-65
2023/10/17 10:30:54;;;;;;;4.82;2.40;;;;;;;11.63;49.72;95188.59;5013402;28;20222;-66
2023/10/17 10:33:27;;;;;;;3.95;2.55;;;;;;;11.65;49.51;95181.53;5016637;28;20198;-65
2023/10/17 10:35:59;;;;;;;3.25;2.50;;;;;;;11.68;49.09;95188.31;5016412;28;20194;-65
2023/10/17 10:38:30;;;;;;;2.80;2.35;;;;;;;11.64;49.02;95174.41;5015709;28;20249;-66
2023/10/17 10:40:57;;;;;;;6.18;3.20;;;;;;;11.64;49.25;95185.47;5016078;28;20207;-66
2023/10/17 10:43:25;;;;;;;4.00;2.53;;;;;;;11.66;49.34;95180.41;5015032;28;20660;-66
2023/10/17 10:45:55;;;;;;;4.72;3.05;;;;;;;11.68;49.19;95185.56;5016266;28;20206;-66
2023/10/17 10:48:22;;;;;;;3.88;2.72;;;;;;;11.69;49.10;95182.47;5016793;28;20180;-66
2023/10/17 10:50:55;;;;;;;3.30;2.63;;;;;;;11.70;49.25;95178.53;5015266;28;20588;-66
2023/10/17 10:53:29;;;;;;;4.10;2.33;;;;;;;11.72;49.54;95176.19;5025642;28;20284;-66
2023/10/17 10:55:59;;;;;;;4.30;2.58;;;;;;;11.73;49.23;95174.25;5034990;28;20546;-66
2023/10/17 10:58:27;;;;;;;4.05;2.80;;;;;;;11.75;49.52;95169.94;5034797;28;20249;-66
2023/10/17 11:00:56;;;;;;;4.88;2.58;;;;;;;11.77;49.52;95170.41;5035145;28;20198;-65
2023/10/17 11:03:23;;;;;;;3.75;2.35;;;;;;;11.78;49.34;95163.72;5035404;28;20269;-65
2023/10/17 11:05:58;;;;;;;4.05;2.92;;;;;;;11.79;49.47;95159.00;5034933;28;20183;-65
2023/10/17 11:08:35;;;;;;;4.75;2.63;;;;;;;11.81;49.09;95157.47;5034476;28;20267;-65
2023/10/17 11:11:03;;;;;;;3.97;2.60;;;;;;;11.82;49.30;95153.53;5034904;28;20186;-65
2023/10/17 11:13:35;;;;;;;5.95;3.00;;;;;;;11.87;49.57;95143.41;5034195;28;20217;-66
2023/10/17 11:16:09;;;;;;;3.63;2.58;;;;;;;11.92;49.37;95145.91;5034806;28;20599;-65
2023/10/17 11:18:36;;;;;;;2.67;2.35;;;;;;;11.96;49.36;95142.06;5036102;28;20285;-65
2023/10/17 11:21:05;;;;;;;8.95;3.15;;;;;;;12.01;49.35;95130.72;5039122;28;20192;-65
2023/10/17 11:23:35;;;;;;;5.30;2.83;;;;;;;12.03;49.02;95130.38;5039154;28;20206;-65
2023/10/17 11:26:04;;;;;;;6.50;2.30;;;;;;;12.04;48.74;95129.19;5039521;28;20183;-65
2023/10/17 11:28:32;;;;;;;2.65;2.45;;;;;;;12.07;48.79;95119.38;5038231;28;20258;-65
2023/10/17 11:30:59;;;;;;;5.50;2.55;;;;;;;12.08;48.83;95115.44;5038639;28;20190;-65
2023/10/17 11:33:37;;;;;;;4.10;2.42;;;;;;;12.09;48.75;95120.63;5038456;28;20252;-65
2023/10/17 11:36:12;;;;;;;4.05;2.60;;;;;;;12.09;48.05;95109.59;5037778;28;20248;-65
2023/10/17 11:38:41;;;;;;;2.92;2.58;;;;;;;12.08;48.17;95107.97;5038750;28;20273;-66
2023/10/17 11:41:09;;;;;;;4.10;2.40;;;;;;;12.08;48.15;95101.63;5039241;28;20187;-65
2023/10/17 11:43:37;;;;;;;3.63;2.35;;;;;;;12.03;48.50;95102.72;5038027;28;20539;-65
2023/10/17 11:46:12;;;;;;;3.70;2.80;;;;;;;12.03;48.68;95099.97;5038234;28;20293;-66
2023/10/17 11:48:43;;;;;;;2.97;2.65;;;;;;;12.05;49.03;95089.31;5038535;28;20196;-66
2023/10/17 11:51:16;;;;;;;3.80;2.55;;;;;;;12.07;49.05;95087.00;5037435;28;20217;-65
2023/10/17 11:54:08;;;;;;;4.50;2.70;;;;;;;12.07;48.64;95088.97;5051726;28;20324;-65
2023/10/17 11:56:34;;;;;;;5.78;3.33;;;;;;;12.04;48.45;95083.00;5057980;28;20190;-65
2023/10/17 11:59:04;;;;;;;3.70;2.95;;;;;;;12.05;48.89;95086.56;5058656;28;20197;-65
2023/10/17 12:01:33;;;;;;;4.15;2.78;;;;;;;12.04;48.90;95094.06;5040937;28;20292;-65
2023/10/17 12:04:05;;;;;;;4.03;3.53;;;;;;;12.07;49.51;95094.50;5058091;28;20206;-65
2023/10/17 12:06:33;;;;;;;4.43;3.05;;;;;;;12.06;49.51;95088.19;5058130;28;20178;-65
2023/10/17 12:09:00;;;;;;;3.85;3.05;;;;;;;12.08;49.20;95085.03;5058025;28;20281;-65
2023/10/17 12:11:28;;;;;;;3.30;3.00;;;;;;;12.08;49.17;95085.03;5057968;28;20186;-65
2023/10/17 12:13:55;;;;;;;3.80;3.35;;;;;;;12.06;48.99;95087.38;5057938;28;20201;-65
2023/10/17 12:16:24;;;;;;;4.78;3.30;;;;;;;12.06;49.21;95087.38;5058248;28;20178;-65
2023/10/17 12:18:53;;;;;;;4.20;3.10;;;;;;;12.06;48.95;95077.13;5057836;28;20200;-65
2023/10/17 12:21:20;;;;;;;3.00;2.67;;;;;;;12.07;49.00;95077.91;5041228;28;20197;-65
2023/10/17 12:23:47;;;;;;;3.15;2.83;;;;;;;12.05;49.03;95078.28;5057618;28;20249;-65
2023/10/17 12:26:14;;;;;;;3.30;2.83;;;;;;;12.04;49.31;95076.66;5040642;28;20292;-65
2023/10/17 12:28:46;;;;;;;4.25;3.10;;;;;;;12.04;48.86;95077.47;5057710;28;20186;-65
2023/10/17 12:31:16;;;;;;;4.55;3.22;;;;;;;12.03;49.25;95078.63;5056332;28;20501;-65
2023/10/17 12:33:43;;;;;;;3.90;2.78;;;;;;;12.04;49.37;95068.38;5058197;28;20181;-65
2023/10/17 12:36:13;;;;;;;4.40;3.03;;;;;;;12.04;49.90;95073.91;5057495;28;20186;-66
2023/10/17 12:38:39;;;;;;;3.85;3.30;;;;;;;12.02;49.62;95077.03;5040850;28;20213;-65
2023/10/17 12:41:07;;;;;;;3.50;3.20;;;;;;;12.02;49.05;95071.53;5057197;28;20182;-65
2023/10/17 12:43:35;;;;;;;4.70;2.97;;;;;;;12.02;49.48;95065.19;5057351;28;20212;-65
2023/10/17 12:46:04;;;;;;;4.00;2.65;;;;;;;12.01;49.64;95067.13;5057244;28;20182;-65
2023/10/17 12:48:31;;;;;;;3.58;3.10;;;;;;;11.99;49.56;95071.44;5040280;28;20205;-65
2023/10/17 12:50:57;;;;;;;5.03;3.00;;;;;;;11.98;49.57;95069.81;5057427;28;20182;-65
2023/10/17 12:53:24;;;;;;;4.45;3.38;;;;;;;11.98;49.71;95076.19;5057408;28;20320;-65
2023/10/17 12:55:55;;;;;;;3.90;3.13;;;;;;;11.99;49.64;95075.00;5039463;28;20280;-66
2023/10/17 12:58:22;;;;;;;4.13;3.10;;;;;;;12.01;49.61;95072.66;5039871;28;20596;-65
2023/10/17 13:00:50;;;;;;;4.38;3.60;;;;;;;12.00;50.06;95073.84;5056741;28;20259;-65
2023/10/17 13:03:19;;;;;;;2.88;2.67;;;;;;;12.01;49.70;95077.41;5057465;28;20262;-65
2023/10/17 13:05:48;;;;;;;3.10;2.75;;;;;;;12.02;49.93;95073.50;5056666;28;20513;-65
2023/10/17 13:08:16;;;;;;;3.80;3.17;;;;;;;12.03;49.96;95064.03;5039730;28;20204;-65
2023/10/17 13:10:44;;;;;;;9.07;3.00;;;;;;;12.03;49.98;95062.06;5039333;28;20609;-65
2023/10/17 13:13:12;;;;;;;4.22;2.95;;;;;;;12.04;50.09;95066.41;5057250;28;20178;-65
2023/10/17 13:15:39;;;;;;;7.50;3.15;;;;;;;12.04;50.11;95063.66;5056713;28;20198;-66
2023/10/17 13:18:10;;;;;;;3.33;3.03;;;;;;;12.05;49.92;95061.69;5056733;28;20178;-65
2023/10/17 13:20:42;;;;;;;5.25;2.65;;;;;;;12.05;50.73;95064.44;5056411;28;20198;-65
2023/10/17 13:23:11;;;;;;;3.40;2.70;;;;;;;12.04;50.77;95069.19;5057257;28;20198;-65
2023/10/17 13:25:39;;;;;;;3.83;2.60;;;;;;;12.02;50.76;95066.00;5056289;28;20216;-65
2023/10/17 13:28:06;;;;;;;2.83;2.63;;;;;;;12.00;50.70;95067.50;5056252;28;20566;-66
2023/10/17 13:30:33;;;;;;;3.70;2.90;;;;;;;11.99;50.91;95065.91;5056541;28;20186;-66
2023/10/17 13:33:00;;;;;;;3.53;2.92;;;;;;;11.99;51.65;95063.16;5039527;28;20186;-66
2023/10/17 13:35:30;;;;;;;4.95;3.13;;;;;;;11.98;51.68;95067.06;5038956;28;20196;-65
2023/10/17 13:37:59;;;;;;;3.50;2.80;;;;;;;11.98;51.00;95065.13;5056371;28;20179;-66